Anemona — 3EUT9 — position and weather

sailwx.info

Track history (hours):
 
Tides and Currents Weather Stations Pressure Air Temp Water Temp Dewpoint Dewpoint Depression Visibility Wind Speed Wind Dir Waves Ship Positions

Anemona

Last reported at 2014-Jul-28 03:12 UTC. Time now 2014-Jul-28 04:21 UTC.
Position N 22°46' E 117°12'.

Length 192 m; draft 6.5 m.

Type: Cargo ship. MMSI: 355664000.

Date/timePositionNaut miles runAvg speedWind from/ knotsBaromVisibWave heightAir tempDewpointWater temp
2014-Jul-28 03:12N 22°46' E 117°12'4211.5
2014-Jul-27 23:32N 23°13' E 117°46'1212.6
2014-Jul-27 22:33N 23°21' E 117°57'1312.8
2014-Jul-27 21:33N 23°28' E 118°08'1312.9
2014-Jul-27 20:33N 23°36' E 118°19'1313.1
2014-Jul-27 19:33N 23°45' E 118°30'1313.0
2014-Jul-27 18:33N 23°52' E 118°42'1312.9
2014-Jul-27 17:33N 24°01' E 118°52'1313.0
2014-Jul-27 16:33N 24°10' E 119°02'1313.0
2014-Jul-27 15:33N 24°19' E 119°12'2812.4
2014-Jul-27 13:20N 24°41' E 119°32'  
Track history (hours):
 
Tides and Currents Weather Stations Pressure Air Temp Water Temp Dewpoint Dewpoint Depression Visibility Wind Speed Wind Dir Waves Ship Positions

Anemona

Last reported at 2014-Jul-28 03:12 UTC. Time now 2014-Jul-28 04:21 UTC.
Position N 22°46' E 117°12'.

Length 192 m; draft 6.5 m.

Type: Cargo ship. MMSI: 355664000.

Date/timePositionNaut miles runAvg speedWind from/ knotsBaromVisibWave heightAir tempDewpointWater temp
2014-Jul-28 03:12N 22°46' E 117°12'4211.5
2014-Jul-27 23:32N 23°13' E 117°46'1212.6
2014-Jul-27 22:33N 23°21' E 117°57'1312.8
2014-Jul-27 21:33N 23°28' E 118°08'1312.9
2014-Jul-27 20:33N 23°36' E 118°19'1313.1
2014-Jul-27 19:33N 23°45' E 118°30'1313.0
2014-Jul-27 18:33N 23°52' E 118°42'1312.9
2014-Jul-27 17:33N 24°01' E 118°52'1313.0
2014-Jul-27 16:33N 24°10' E 119°02'1313.0
2014-Jul-27 15:33N 24°19' E 119°12'2812.4
2014-Jul-27 13:20N 24°41' E 119°32'  

Dump ship's entire track history